sim
Sign-in with your pilot id or email,
or register
Callsign
Passwort

Schedule Details

Flight Number: DLH1827
Departure: Bilbao Airport (LEBB) at 17:25
Arrival: Munich Airport (EDDM) at 19:35
Route: Lufthansa Passenger Schedule. Enter filed route here before submitting Pirep.

Weather Information
Getting current METAR information for LEBB 240630Z 33004KT 290V010 9999 FEW016 BKN032 18/16 Q1012 NOSIG
Getting current METAR information for EDDM 240620Z VRB01KT CAVOK 12/11 Q1009 BECMG 26008KT

Schedule Frequency

Route Map